createdAt,value
2022-10-12T00:00:51.094Z,99.99
2022-10-12T00:01:51.167Z,99.99
2022-10-12T00:02:51.009Z,99.99
2022-10-12T00:03:51.144Z,99.77
2022-10-12T00:04:50.972Z,99.38
2022-10-12T00:05:50.989Z,99.38
2022-10-12T00:06:50.877Z,99.10
2022-10-12T00:07:50.801Z,98.91
2022-10-12T00:08:50.781Z,99.29
2022-10-12T00:09:50.740Z,98.76
2022-10-12T00:10:50.663Z,98.71
2022-10-12T00:11:50.691Z,98.76
2022-10-12T00:12:50.628Z,98.86
2022-10-12T00:13:50.540Z,98.86
2022-10-12T00:14:50.496Z,99.05
2022-10-12T00:15:50.592Z,98.76
2022-10-12T00:16:50.408Z,98.67
2022-10-12T00:17:50.399Z,98.96
2022-10-12T00:18:50.327Z,98.96
2022-10-12T00:19:50.303Z,98.19
2022-10-12T00:20:50.321Z,98.28
2022-10-12T00:21:50.204Z,97.90
2022-10-12T00:22:50.171Z,98.10
2022-10-12T00:23:50.116Z,98.28
2022-10-12T00:24:50.081Z,98.19
2022-10-12T00:25:50.028Z,98.28
2022-10-12T00:26:50.044Z,98.19
2022-10-12T00:27:50.819Z,98.19
2022-10-12T00:28:50.227Z,98.19
2022-10-12T00:29:49.861Z,98.19
2022-10-12T00:30:49.820Z,98.38
2022-10-12T00:31:49.774Z,98.10
2022-10-12T00:32:49.728Z,98.10
2022-10-12T00:33:49.696Z,98.96
2022-10-12T00:34:49.776Z,98.67
2022-10-12T00:35:50.318Z,98.86
2022-10-12T00:36:49.559Z,98.76
2022-10-12T00:37:49.537Z,98.47
2022-10-12T00:38:49.519Z,98.76
2022-10-12T00:39:49.435Z,99.15
2022-10-12T00:40:49.411Z,98.86
2022-10-12T00:41:49.349Z,98.81
2022-10-12T00:42:49.314Z,98.10
2022-10-12T00:43:50.968Z,98.38
2022-10-12T00:44:49.227Z,98.38
2022-10-12T00:45:49.338Z,98.19
2022-10-12T00:46:49.133Z,98.96
2022-10-12T00:47:49.101Z,98.86
2022-10-12T00:48:49.107Z,98.86
2022-10-12T00:49:49.017Z,97.90
2022-10-12T00:50:48.966Z,99.05
2022-10-12T00:51:49.056Z,98.19
2022-10-12T00:52:48.902Z,98.38
2022-10-12T00:53:48.911Z,98.19
2022-10-12T00:54:48.885Z,98.28
2022-10-12T00:55:48.807Z,98.24
2022-10-12T00:56:48.766Z,98.14
2022-10-12T00:57:48.863Z,98.33
2022-10-12T00:58:48.663Z,98.14
2022-10-12T00:59:48.611Z,97.95
2022-10-12T01:00:48.635Z,97.76
2022-10-12T01:01:48.501Z,97.95
2022-10-12T01:02:48.900Z,98.14
2022-10-12T01:03:48.444Z,98.05
2022-10-12T01:04:48.372Z,97.38
2022-10-12T01:05:48.393Z,97.38
2022-10-12T01:06:48.829Z,97.38
2022-10-12T01:07:48.273Z,97.56
2022-10-12T01:08:48.238Z,97.90
2022-10-12T01:09:48.165Z,97.33
2022-10-12T01:10:48.127Z,98.10
2022-10-12T01:11:48.093Z,97.95
2022-10-12T01:12:48.051Z,97.61
2022-10-12T01:13:48.117Z,97.71
2022-10-12T01:14:48.010Z,97.52
2022-10-12T01:15:47.910Z,97.33
2022-10-12T01:16:47.890Z,97.23
2022-10-12T01:17:47.829Z,97.23
2022-10-12T01:18:47.783Z,97.23
2022-10-12T01:19:47.793Z,97.23
2022-10-12T01:20:47.829Z,96.75
2022-10-12T01:21:47.795Z,97.04
2022-10-12T01:22:47.620Z,97.33
2022-10-12T01:23:47.572Z,96.66
2022-10-12T01:24:47.560Z,96.85
2022-10-12T01:25:47.557Z,96.27
2022-10-12T01:26:47.484Z,96.66
2022-10-12T01:27:47.839Z,96.37
2022-10-12T01:28:47.402Z,96.37
2022-10-12T01:29:47.365Z,96.27
2022-10-12T01:30:47.278Z,96.75
2022-10-12T01:31:47.235Z,96.47
2022-10-12T01:32:47.225Z,96.47
2022-10-12T01:33:47.152Z,96.37
2022-10-12T01:34:47.105Z,96.37
2022-10-12T01:35:47.071Z,96.37
2022-10-12T01:36:47.024Z,96.66
2022-10-12T01:37:46.987Z,96.85
2022-10-12T01:38:46.969Z,96.27
2022-10-12T01:39:46.898Z,96.47
2022-10-12T01:40:46.855Z,96.47
2022-10-12T01:41:46.812Z,96.08
2022-10-12T01:42:46.796Z,96.66
2022-10-12T01:43:46.771Z,96.94
2022-10-12T01:44:46.717Z,97.23
2022-10-12T01:45:46.641Z,97.14
2022-10-12T01:46:46.604Z,97.33
2022-10-12T01:47:46.559Z,97.33
2022-10-12T01:48:46.541Z,97.14
2022-10-12T01:49:46.482Z,97.23
2022-10-12T01:50:46.430Z,97.42
2022-10-12T01:51:46.391Z,97.61
2022-10-12T01:52:46.348Z,97.61
2022-10-12T01:53:46.330Z,97.81
2022-10-12T01:54:46.262Z,97.81
2022-10-12T01:55:46.220Z,98.00
2022-10-12T01:56:46.178Z,97.90
2022-10-12T01:57:46.142Z,97.90
2022-10-12T01:58:46.122Z,97.04
2022-10-12T01:59:46.055Z,97.42
2022-10-12T02:00:46.057Z,97.23
2022-10-12T02:01:45.970Z,97.42
2022-10-12T02:02:45.928Z,97.23
2022-10-12T02:03:45.885Z,97.14
2022-10-12T02:04:45.839Z,97.42
2022-10-12T02:05:45.836Z,97.42
2022-10-12T02:06:45.760Z,97.52
2022-10-12T02:07:45.713Z,97.52
2022-10-12T02:08:45.674Z,97.23
2022-10-12T02:09:45.638Z,97.23
2022-10-12T02:10:45.593Z,97.23
2022-10-12T02:11:45.582Z,97.90
2022-10-12T02:12:45.509Z,97.23
2022-10-12T02:13:45.464Z,98.00
2022-10-12T02:14:45.421Z,97.04
2022-10-12T02:15:45.375Z,97.61
2022-10-12T02:16:45.339Z,97.04
2022-10-12T02:17:45.327Z,97.14
2022-10-12T02:18:45.311Z,97.33
2022-10-12T02:19:45.251Z,96.94
2022-10-12T02:20:45.170Z,97.14
2022-10-12T02:21:45.126Z,96.89
2022-10-12T02:22:45.079Z,96.66
2022-10-12T02:23:45.039Z,96.75
2022-10-12T02:24:45.032Z,96.94
2022-10-12T02:25:44.995Z,96.66
2022-10-12T02:26:44.916Z,96.51
2022-10-12T02:27:44.875Z,96.56
2022-10-12T02:28:45.017Z,96.66
2022-10-12T02:29:44.791Z,96.66
2022-10-12T02:30:44.750Z,96.56
2022-10-12T02:31:44.741Z,96.85
2022-10-12T02:32:44.665Z,96.66
2022-10-12T02:33:44.653Z,96.94
2022-10-12T02:34:44.580Z,96.94
2022-10-12T02:35:44.537Z,97.23
2022-10-12T02:36:44.525Z,96.94
2022-10-12T02:37:44.455Z,97.42
2022-10-12T02:38:44.411Z,97.42
2022-10-12T02:39:44.373Z,97.61
2022-10-12T02:40:44.327Z,97.61
2022-10-12T02:41:44.285Z,97.42
2022-10-12T02:43:08.771Z,97.23
2022-10-12T02:43:44.203Z,97.23
2022-10-12T02:44:44.159Z,97.14
2022-10-12T02:45:44.117Z,96.85
2022-10-12T02:46:44.084Z,97.19
2022-10-12T02:47:44.162Z,97.28
2022-10-12T02:48:43.990Z,97.19
2022-10-12T02:49:43.951Z,97.23
2022-10-12T02:50:43.976Z,97.33
2022-10-12T02:51:43.869Z,96.80
2022-10-12T02:52:43.849Z,96.94
2022-10-12T02:53:43.896Z,96.89
2022-10-12T02:54:43.774Z,96.75
2022-10-12T02:55:43.695Z,96.27
2022-10-12T02:56:43.655Z,96.32
2022-10-12T02:57:43.636Z,96.32
2022-10-12T02:58:43.570Z,96.22
2022-10-12T02:59:43.534Z,96.32
2022-10-12T03:00:43.489Z,96.56
2022-10-12T03:01:43.590Z,96.18
2022-10-12T03:02:43.404Z,96.32
2022-10-12T03:03:43.363Z,96.42
2022-10-12T03:04:43.350Z,96.18
2022-10-12T03:05:43.284Z,96.51
2022-10-12T03:06:43.234Z,96.37
2022-10-12T03:07:43.218Z,96.13
2022-10-12T03:08:43.170Z,96.42
2022-10-12T03:09:43.107Z,96.51
2022-10-12T03:10:43.070Z,96.51
2022-10-12T03:11:43.025Z,96.61
2022-10-12T03:12:46.492Z,96.42
2022-10-12T03:13:42.945Z,96.22
2022-10-12T03:14:42.905Z,96.13
2022-10-12T03:15:42.859Z,96.13
2022-10-12T03:16:42.819Z,96.03
2022-10-12T03:17:42.801Z,96.32
2022-10-12T03:18:42.734Z,96.32
2022-10-12T03:19:42.689Z,96.42
2022-10-12T03:20:42.650Z,96.51
2022-10-12T03:21:42.612Z,96.42
2022-10-12T03:22:42.561Z,96.32
2022-10-12T03:23:42.548Z,96.22
2022-10-12T03:24:42.486Z,96.13
2022-10-12T03:25:42.439Z,96.22
2022-10-12T03:26:42.436Z,96.13
2022-10-12T03:27:42.358Z,95.46
2022-10-12T03:28:42.385Z,95.75
2022-10-12T03:29:42.273Z,96.51
2022-10-12T03:30:42.228Z,95.55
2022-10-12T03:31:42.185Z,95.55
2022-10-12T03:32:42.289Z,95.94
2022-10-12T03:33:42.111Z,95.75
2022-10-12T03:34:42.091Z,95.84
2022-10-12T03:35:42.025Z,95.65
2022-10-12T03:36:41.978Z,95.17
2022-10-12T03:37:41.940Z,95.75
2022-10-12T03:38:41.918Z,96.03
2022-10-12T03:39:41.862Z,95.75
2022-10-12T03:40:42.284Z,95.75
2022-10-12T03:41:41.773Z,95.65
2022-10-12T03:42:41.730Z,96.03
2022-10-12T03:43:41.689Z,95.75
2022-10-12T03:44:41.656Z,95.75
2022-10-12T03:45:41.600Z,95.70
2022-10-12T03:46:41.581Z,95.75
2022-10-12T03:47:41.671Z,95.75
2022-10-12T03:48:41.470Z,95.65
2022-10-12T03:49:41.434Z,96.13
2022-10-12T03:50:41.388Z,96.32
2022-10-12T03:51:41.352Z,96.51
2022-10-12T03:52:41.492Z,96.37
2022-10-12T03:53:45.391Z,96.08
2022-10-12T03:54:41.226Z,96.27
2022-10-12T03:55:41.181Z,96.08
2022-10-12T03:56:41.141Z,96.27
2022-10-12T03:57:41.162Z,96.18
2022-10-12T03:58:41.241Z,96.27
2022-10-12T03:59:41.015Z,96.22
2022-10-12T04:00:40.968Z,96.18
2022-10-12T04:01:40.950Z,96.18
2022-10-12T04:02:40.883Z,96.32
2022-10-12T04:03:40.844Z,96.42
2022-10-12T04:04:40.839Z,96.47
2022-10-12T04:05:40.760Z,96.42
2022-10-12T04:06:40.718Z,96.61
2022-10-12T04:07:41.030Z,96.08
2022-10-12T04:08:40.631Z,96.42
2022-10-12T04:09:40.594Z,96.22
2022-10-12T04:10:40.639Z,96.32
2022-10-12T04:11:40.509Z,96.42
2022-10-12T04:12:40.471Z,96.27
2022-10-12T04:13:40.422Z,96.27
2022-10-12T04:14:40.381Z,96.32
2022-10-12T04:15:40.341Z,96.27
2022-10-12T04:16:40.333Z,96.61
2022-10-12T04:17:40.543Z,96.42
2022-10-12T04:18:40.209Z,96.37
2022-10-12T04:19:40.176Z,96.27
2022-10-12T04:20:40.133Z,96.42
2022-10-12T04:21:40.089Z,96.47
2022-10-12T04:22:40.293Z,96.32
2022-10-12T04:23:40.194Z,96.32
2022-10-12T04:24:39.965Z,96.22
2022-10-12T04:25:39.923Z,96.51
2022-10-12T04:26:39.884Z,96.32
2022-10-12T04:27:40.152Z,96.13
2022-10-12T04:28:39.858Z,96.22
2022-10-12T04:29:39.787Z,96.32
2022-10-12T04:30:39.709Z,96.47
2022-10-12T04:31:39.666Z,96.51
2022-10-12T04:32:39.628Z,96.08
2022-10-12T04:33:39.583Z,96.18
2022-10-12T04:34:39.550Z,96.22
2022-10-12T04:35:39.524Z,96.32
2022-10-12T04:36:39.460Z,96.42
2022-10-12T04:37:39.674Z,96.13
2022-10-12T04:38:39.374Z,96.42
2022-10-12T04:39:39.333Z,96.22
2022-10-12T04:40:39.287Z,96.27
2022-10-12T04:41:39.245Z,96.18
2022-10-12T04:42:39.206Z,96.47
2022-10-12T04:43:39.183Z,96.13
2022-10-12T04:44:39.130Z,96.18
2022-10-12T04:45:39.080Z,96.37
2022-10-12T04:46:39.040Z,96.47
2022-10-12T04:47:39.145Z,96.32
2022-10-12T04:48:38.977Z,96.42
2022-10-12T04:49:38.915Z,96.42
2022-10-12T04:50:38.871Z,96.08
2022-10-12T04:51:38.853Z,96.37
2022-10-12T04:52:38.820Z,96.51
2022-10-12T04:53:38.741Z,96.32
2022-10-12T04:54:38.701Z,96.37
2022-10-12T04:55:38.657Z,96.22
2022-10-12T04:56:38.618Z,96.42
2022-10-12T04:57:38.784Z,96.42
2022-10-12T04:58:38.560Z,96.47
2022-10-12T04:59:38.493Z,96.37
2022-10-12T05:00:38.463Z,96.51
2022-10-12T05:01:38.472Z,96.27
2022-10-12T05:02:38.370Z,96.37
2022-10-12T05:03:41.843Z,96.08
2022-10-12T05:04:38.287Z,96.37
2022-10-12T05:05:38.240Z,96.18
2022-10-12T05:06:38.223Z,96.56
2022-10-12T05:07:38.422Z,96.66
2022-10-12T05:08:38.111Z,96.66
2022-10-12T05:09:38.077Z,97.33
2022-10-12T05:10:38.029Z,97.14
2022-10-12T05:11:37.987Z,97.04
2022-10-12T05:12:38.267Z,96.94
2022-10-12T05:13:37.901Z,96.94
2022-10-12T05:14:37.865Z,97.33
2022-10-12T05:15:37.849Z,97.33
2022-10-12T05:16:37.782Z,96.94
2022-10-12T05:17:38.050Z,97.04
2022-10-12T05:18:37.693Z,97.33
2022-10-12T05:19:37.649Z,97.14
2022-10-12T05:20:37.611Z,97.33
2022-10-12T05:21:37.597Z,97.14
2022-10-12T05:22:37.528Z,97.52
2022-10-12T05:23:37.487Z,97.04
2022-10-12T05:24:37.448Z,97.33
2022-10-12T05:25:37.430Z,97.33
2022-10-12T05:26:37.358Z,97.04
2022-10-12T05:27:37.685Z,97.23
2022-10-12T05:28:40.807Z,96.66
2022-10-12T05:29:37.232Z,96.56
2022-10-12T05:30:37.191Z,96.61
2022-10-12T05:31:37.194Z,96.61
2022-10-12T05:32:37.365Z,96.70
2022-10-12T05:33:37.061Z,96.51
2022-10-12T05:34:37.020Z,96.61
2022-10-12T05:35:37.098Z,96.66
2022-10-12T05:36:36.939Z,96.75
2022-10-12T05:37:37.026Z,96.61
2022-10-12T05:38:36.853Z,96.89
2022-10-12T05:39:36.811Z,96.32
2022-10-12T05:40:36.772Z,96.61
2022-10-12T05:41:36.755Z,96.13
2022-10-12T05:42:36.901Z,96.61
2022-10-12T05:43:36.645Z,96.37
2022-10-12T05:44:36.604Z,96.18
2022-10-12T05:45:36.553Z,96.22
2022-10-12T05:46:36.545Z,96.13
2022-10-12T05:47:36.842Z,96.27
2022-10-12T05:48:36.437Z,96.47
2022-10-12T05:49:36.396Z,95.98
2022-10-12T05:50:36.347Z,96.37
2022-10-12T05:51:36.307Z,96.18
2022-10-12T05:52:36.633Z,96.47
2022-10-12T05:53:36.242Z,96.85
2022-10-12T05:54:36.181Z,96.85
2022-10-12T05:55:36.151Z,96.75
2022-10-12T05:56:36.096Z,96.66
2022-10-12T05:57:36.052Z,96.66
2022-10-12T05:58:36.035Z,96.94
2022-10-12T05:59:35.968Z,96.75
2022-10-12T06:06:57.801Z,96.94
2022-10-12T06:11:44.013Z,97.71
2022-10-12T06:15:14.921Z,98.10
2022-10-12T06:16:14.422Z,98.00
2022-10-12T06:17:05.305Z,97.61
2022-10-12T06:18:05.269Z,97.90
2022-10-12T06:19:05.222Z,98.00
2022-10-12T06:20:05.204Z,98.00
2022-10-12T06:21:34.605Z,98.10
2022-10-12T06:22:05.129Z,98.00
2022-10-12T06:23:05.052Z,98.19
2022-10-12T06:24:05.009Z,97.33
2022-10-12T06:25:04.961Z,97.14
2022-10-12T06:26:04.923Z,97.61
2022-10-12T06:27:04.890Z,97.71
2022-10-12T06:28:04.861Z,97.81
2022-10-12T06:29:04.796Z,97.04
2022-10-12T06:30:04.781Z,97.23
2022-10-12T06:31:04.707Z,97.14
2022-10-12T06:32:04.671Z,97.33
2022-10-12T06:33:04.651Z,97.19
2022-10-12T06:34:04.584Z,96.66
2022-10-12T06:35:04.614Z,96.61
2022-10-12T06:36:04.501Z,96.89
2022-10-12T06:37:04.488Z,96.32
2022-10-12T06:38:04.452Z,96.51
2022-10-12T06:39:04.371Z,96.51
2022-10-12T06:40:04.324Z,96.22
2022-10-12T06:41:04.284Z,96.42
2022-10-12T06:42:04.245Z,96.42
2022-10-12T06:43:04.201Z,96.32
2022-10-12T06:44:04.188Z,95.98
2022-10-12T06:45:04.121Z,95.21
2022-10-12T06:46:04.081Z,95.79
2022-10-12T06:47:04.037Z,95.03
2022-10-12T06:48:03.996Z,94.64
2022-10-12T06:49:03.978Z,94.83
2022-10-12T06:50:03.908Z,94.74
2022-10-12T06:51:03.870Z,93.73
2022-10-12T06:52:03.860Z,93.49
2022-10-12T06:53:03.809Z,93.44
2022-10-12T06:54:03.740Z,93.63
2022-10-12T06:55:03.702Z,93.54
2022-10-12T06:56:03.657Z,92.48
2022-10-12T06:57:03.612Z,92.38
2022-10-12T06:58:03.574Z,92.86
2022-10-12T06:59:03.567Z,92.10
2022-10-12T07:00:03.489Z,92.10
2022-10-12T07:01:03.449Z,92.10
2022-10-12T07:02:03.470Z,91.42
2022-10-12T07:03:03.368Z,91.23
2022-10-12T07:04:03.325Z,91.33
2022-10-12T07:05:03.311Z,91.04
2022-10-12T07:06:03.267Z,91.71
2022-10-12T07:07:03.200Z,91.56
2022-10-12T07:08:03.193Z,91.33
2022-10-12T07:09:03.121Z,91.37
2022-10-12T07:10:03.094Z,91.18
2022-10-12T07:11:03.036Z,90.99
2022-10-12T07:12:03.022Z,90.89
2022-10-12T07:13:02.958Z,90.80
2022-10-12T07:14:02.945Z,90.60
2022-10-12T07:15:02.867Z,90.03
2022-10-12T07:16:02.856Z,90.22
2022-10-12T07:17:02.790Z,89.54
2022-10-12T07:18:02.746Z,89.45
2022-10-12T07:19:02.705Z,89.07
2022-10-12T07:20:02.687Z,89.69
2022-10-12T07:21:02.631Z,89.30
2022-10-12T07:22:02.585Z,89.21
2022-10-12T07:23:02.571Z,89.11
2022-10-12T07:24:02.502Z,88.15
2022-10-12T07:25:02.458Z,87.96
2022-10-12T07:26:02.446Z,88.06
2022-10-12T07:27:02.379Z,87.76
2022-10-12T07:28:02.332Z,87.48
2022-10-12T07:29:02.290Z,87.57
2022-10-12T07:30:02.263Z,87.29
2022-10-12T07:31:02.464Z,87.19
2022-10-12T07:32:02.170Z,87.76
2022-10-12T07:33:02.135Z,87.38
2022-10-12T07:34:02.091Z,87.57
2022-10-12T07:35:02.053Z,87.38
2022-10-12T07:36:21.755Z,88.15
2022-10-12T07:37:02.024Z,88.06
2022-10-12T07:38:01.929Z,88.34
2022-10-12T07:39:01.887Z,87.96
2022-10-12T07:40:01.853Z,87.96
2022-10-12T07:41:01.806Z,87.96
2022-10-12T07:42:01.766Z,87.96
2022-10-12T07:43:16.872Z,88.06
2022-10-12T07:44:01.679Z,87.86
2022-10-12T07:45:01.641Z,87.86
2022-10-12T07:46:01.599Z,87.96
2022-10-12T07:47:01.588Z,88.24
2022-10-12T07:48:01.558Z,87.86
2022-10-12T07:49:01.478Z,87.96
2022-10-12T07:50:01.436Z,87.86
2022-10-12T07:51:01.395Z,87.19
2022-10-12T07:52:01.355Z,87.57
2022-10-12T07:53:01.313Z,86.99
2022-10-12T07:54:01.298Z,87.29
2022-10-12T07:55:01.256Z,86.85
2022-10-12T07:56:01.190Z,86.85
2022-10-12T07:57:01.153Z,86.65
2022-10-12T07:58:01.111Z,86.08
2022-10-12T07:59:01.074Z,86.65
2022-10-12T08:00:01.057Z,85.88
2022-10-12T08:01:00.987Z,85.78
2022-10-12T08:02:01.054Z,85.60
2022-10-12T08:03:00.911Z,85.93
2022-10-12T08:04:02.008Z,85.54
2022-10-12T08:05:00.848Z,84.77
2022-10-12T08:06:00.788Z,85.25
2022-10-12T08:07:00.748Z,84.97
2022-10-12T08:08:00.703Z,84.00
2022-10-12T08:09:00.692Z,83.66
2022-10-12T08:10:00.624Z,83.28
2022-10-12T08:11:00.585Z,83.47
2022-10-12T08:12:00.544Z,83.37
2022-10-12T08:13:00.502Z,82.79
2022-10-12T08:14:00.497Z,83.08
2022-10-12T08:15:00.419Z,82.50
2022-10-12T08:16:00.421Z,82.21
2022-10-12T08:17:00.341Z,81.93
2022-10-12T08:18:00.304Z,82.02
2022-10-12T08:19:00.266Z,81.77
2022-10-12T08:20:00.242Z,81.58
2022-10-12T08:21:00.178Z,81.48
2022-10-12T08:22:00.166Z,80.81
2022-10-12T08:23:00.098Z,81.01
2022-10-12T08:24:00.062Z,81.20
2022-10-12T08:25:00.023Z,81.01
2022-10-12T08:26:00.008Z,80.76
2022-10-12T08:27:01.479Z,80.27
2022-10-12T08:27:59.897Z,79.60
2022-10-12T08:28:59.861Z,78.63
2022-10-12T08:29:59.823Z,78.54
2022-10-12T08:30:59.813Z,78.63
2022-10-12T08:31:59.765Z,78.54
2022-10-12T08:32:59.703Z,78.73
2022-10-12T08:33:59.666Z,78.63
2022-10-12T08:34:59.621Z,77.86
2022-10-12T08:35:59.584Z,78.25
2022-10-12T08:36:59.544Z,78.73
2022-10-12T08:37:59.530Z,78.25
2022-10-12T08:38:59.463Z,78.19
2022-10-12T08:40:03.108Z,77.71
2022-10-12T08:40:59.383Z,76.45
2022-10-12T08:41:59.374Z,75.88
2022-10-12T08:42:59.306Z,76.26
2022-10-12T08:43:59.291Z,76.17
2022-10-12T08:44:59.250Z,76.17
2022-10-12T08:45:59.188Z,76.55
2022-10-12T08:46:59.151Z,76.65
2022-10-12T08:47:59.109Z,76.17
2022-10-12T08:48:59.070Z,75.59
2022-10-12T08:49:59.057Z,75.72
2022-10-12T08:50:59.021Z,75.68
2022-10-12T08:51:58.949Z,75.24
2022-10-12T08:52:58.936Z,74.57
2022-10-12T08:53:58.873Z,73.79
2022-10-12T08:54:58.861Z,73.79
2022-10-12T08:55:58.796Z,73.60
2022-10-12T08:56:58.754Z,73.73
2022-10-12T08:57:58.744Z,72.96
2022-10-12T08:58:58.676Z,72.28
2022-10-12T08:59:58.637Z,72.67
2022-10-12T09:00:58.601Z,71.58
2022-10-12T09:01:58.617Z,71.22
2022-10-12T09:02:58.523Z,71.80
2022-10-12T09:03:58.508Z,71.70
2022-10-12T09:04:58.469Z,71.61
2022-10-12T09:05:58.400Z,70.54
2022-10-12T09:06:58.393Z,71.19
2022-10-12T09:07:58.323Z,71.67
2022-10-12T09:08:58.288Z,71.67
2022-10-12T09:09:58.249Z,71.38
2022-10-12T09:10:58.212Z,71.42
2022-10-12T09:11:58.169Z,71.22
2022-10-12T09:12:58.323Z,71.28
2022-10-12T09:13:58.093Z,70.36
2022-10-12T09:14:58.052Z,70.51
2022-10-12T09:15:58.011Z,71.19
2022-10-12T09:16:57.971Z,71.32
2022-10-12T09:17:57.936Z,71.38
2022-10-12T09:18:58.000Z,71.22
2022-10-12T09:19:57.856Z,70.51
2022-10-12T09:20:57.816Z,70.51
2022-10-12T09:21:57.776Z,70.80
2022-10-12T09:22:57.747Z,70.70
2022-10-12T09:23:57.705Z,71.48
2022-10-12T09:24:57.692Z,71.48
2022-10-12T09:25:57.628Z,71.48
2022-10-12T09:26:57.584Z,70.74
2022-10-12T09:27:57.544Z,70.45
2022-10-12T09:28:57.592Z,70.64
2022-10-12T09:29:57.471Z,70.54
2022-10-12T09:30:57.452Z,70.74
2022-10-12T09:31:57.391Z,70.36
2022-10-12T09:32:57.348Z,70.36
2022-10-12T09:33:57.309Z,71.12
2022-10-12T09:34:57.282Z,71.51
2022-10-12T09:35:57.235Z,71.03
2022-10-12T09:36:57.206Z,71.32
2022-10-12T09:37:57.154Z,70.64
2022-10-12T09:38:57.117Z,70.36
2022-10-12T09:39:57.074Z,70.74
2022-10-12T09:40:57.039Z,70.84
2022-10-12T09:41:57.043Z,70.26
2022-10-12T09:42:56.959Z,70.74
2022-10-12T09:43:56.921Z,70.94
2022-10-12T09:44:56.880Z,71.80
2022-10-12T09:45:56.837Z,71.12
2022-10-12T09:46:56.804Z,71.12
2022-10-12T09:47:56.803Z,70.84
2022-10-12T09:48:56.726Z,70.36
2022-10-12T09:49:56.685Z,70.45
2022-10-12T09:50:56.646Z,70.36
2022-10-12T09:51:56.601Z,70.36
2022-10-12T09:52:56.567Z,70.84
2022-10-12T09:53:57.829Z,69.87
2022-10-12T09:54:56.489Z,69.87
2022-10-12T09:55:56.449Z,69.78
2022-10-12T09:56:56.415Z,69.58
2022-10-12T09:57:56.410Z,69.39
2022-10-12T09:58:56.334Z,69.58
2022-10-12T09:59:56.293Z,70.06
2022-10-12T10:00:56.256Z,69.68
2022-10-12T10:01:56.277Z,70.64
2022-10-12T10:02:56.179Z,70.74
2022-10-12T10:03:56.160Z,70.36
2022-10-12T10:04:56.099Z,70.64
2022-10-12T10:05:56.057Z,70.51
2022-10-12T10:06:56.025Z,70.22
2022-10-12T10:07:55.980Z,70.80
2022-10-12T10:08:55.944Z,70.70
2022-10-12T10:09:56.014Z,69.68
2022-10-12T10:10:55.863Z,70.64
2022-10-12T10:11:55.852Z,70.64
2022-10-12T10:12:55.789Z,70.70
2022-10-12T10:13:55.746Z,70.51
2022-10-12T10:14:55.711Z,70.90
2022-10-12T10:15:55.698Z,71.00
2022-10-12T10:16:55.627Z,71.48
2022-10-12T10:17:55.617Z,70.90
2022-10-12T10:18:55.550Z,70.90
2022-10-12T10:19:55.509Z,70.80
2022-10-12T10:20:55.469Z,71.19
2022-10-12T10:21:55.433Z,71.09
2022-10-12T10:22:55.392Z,71.58
2022-10-12T10:23:55.368Z,72.06
2022-10-12T10:24:59.734Z,71.86
2022-10-12T10:25:55.271Z,72.15
2022-10-12T10:26:55.241Z,72.63
2022-10-12T10:27:55.192Z,72.44
2022-10-12T10:28:55.240Z,72.41
2022-10-12T10:30:04.834Z,72.63
2022-10-12T10:30:55.074Z,73.02
2022-10-12T10:31:55.037Z,72.73
2022-10-12T10:32:54.999Z,72.44
2022-10-12T10:33:54.961Z,72.25
2022-10-12T10:34:54.921Z,72.54
2022-10-12T10:35:54.892Z,72.34
2022-10-12T10:36:54.839Z,72.34
2022-10-12T10:37:54.800Z,72.06
2022-10-12T10:38:54.781Z,72.34
2022-10-12T10:39:54.724Z,72.25
2022-10-12T10:40:54.689Z,72.06
2022-10-12T10:41:54.645Z,71.67
2022-10-12T10:42:54.608Z,71.58
2022-10-12T10:43:54.565Z,71.58
2022-10-12T10:44:54.541Z,71.86
2022-10-12T10:45:54.484Z,71.67
2022-10-12T10:46:54.450Z,71.28
2022-10-12T10:47:54.411Z,71.58
2022-10-12T10:48:54.371Z,71.58
2022-10-12T10:49:54.351Z,71.58
2022-10-12T10:50:54.290Z,71.19
2022-10-12T10:51:54.252Z,71.38
2022-10-12T10:52:54.213Z,71.48
2022-10-12T10:53:54.169Z,71.48
2022-10-12T10:54:54.132Z,71.38
2022-10-12T10:55:54.359Z,71.00
2022-10-12T10:56:54.051Z,70.70
2022-10-12T10:57:54.013Z,70.80
2022-10-12T10:58:53.975Z,70.51
2022-10-12T10:59:53.933Z,70.70
2022-10-12T11:00:53.895Z,70.42
2022-10-12T11:01:54.028Z,70.22
2022-10-12T11:02:53.814Z,70.61
2022-10-12T11:03:53.775Z,70.32
2022-10-12T11:04:53.741Z,70.22
2022-10-12T11:05:53.700Z,69.84
2022-10-12T11:06:53.655Z,70.51
2022-10-12T11:07:53.648Z,70.51
2022-10-12T11:08:53.580Z,70.32
2022-10-12T11:09:53.542Z,71.28
2022-10-12T11:10:53.500Z,70.51
2022-10-12T11:11:53.464Z,70.32
2022-10-12T11:12:53.421Z,70.90
2022-10-12T11:13:53.407Z,71.28
2022-10-12T11:14:53.339Z,71.58
2022-10-12T11:15:53.300Z,71.51
2022-10-12T11:16:53.263Z,71.32
2022-10-12T11:17:53.225Z,71.32
2022-10-12T11:18:53.189Z,71.80
2022-10-12T11:19:53.153Z,71.70
2022-10-12T11:20:53.106Z,71.61
2022-10-12T11:21:53.064Z,71.22
2022-10-12T11:22:53.027Z,71.32
2022-10-12T11:23:53.031Z,71.22
2022-10-12T11:24:52.957Z,71.22
2022-10-12T11:25:52.909Z,71.32
2022-10-12T11:26:52.868Z,70.54
2022-10-12T11:27:53.900Z,70.74
2022-10-12T11:28:52.866Z,70.54
2022-10-12T11:30:02.889Z,70.54
2022-10-12T11:30:52.713Z,70.36
2022-10-12T11:31:52.670Z,70.74
2022-10-12T11:32:52.633Z,70.54
2022-10-12T11:33:52.591Z,70.64
2022-10-12T11:34:52.569Z,70.16
2022-10-12T11:35:52.515Z,69.97
2022-10-12T11:37:14.716Z,69.97
2022-10-12T11:37:52.433Z,69.87
2022-10-12T11:38:52.402Z,70.06
2022-10-12T11:39:52.355Z,70.06
2022-10-12T11:42:16.910Z,70.64
2022-10-12T11:42:52.241Z,70.84
2022-10-12T11:43:52.198Z,70.36
2022-10-12T11:44:52.159Z,70.74
2022-10-12T11:45:52.124Z,70.16
2022-10-12T11:46:52.102Z,70.64
2022-10-12T11:47:52.042Z,69.78
2022-10-12T11:48:52.006Z,69.00
2022-10-12T11:49:51.969Z,69.58
2022-10-12T11:50:51.926Z,68.62
2022-10-12T11:51:51.890Z,69.00
2022-10-12T11:52:51.867Z,69.97
2022-10-12T11:53:51.809Z,69.68
2022-10-12T11:54:51.766Z,70.45
2022-10-12T11:55:51.731Z,70.51
2022-10-12T11:56:51.718Z,71.00
2022-10-12T11:57:51.654Z,71.38
2022-10-12T11:59:06.773Z,71.58
2022-10-12T11:59:51.574Z,71.58
2022-10-12T12:00:51.534Z,71.19
2022-10-12T12:01:51.493Z,71.67
2022-10-12T12:02:51.469Z,71.86
2022-10-12T12:03:51.559Z,72.06
2022-10-12T12:04:51.602Z,72.25
2022-10-12T12:05:51.342Z,71.77
2022-10-12T12:06:51.296Z,72.54
2022-10-12T12:07:51.259Z,72.63
2022-10-12T12:08:51.218Z,71.77
2022-10-12T12:09:51.604Z,72.06
2022-10-12T12:10:51.140Z,71.70
2022-10-12T12:11:51.102Z,71.58
2022-10-12T12:12:51.060Z,71.51
2022-10-12T12:13:51.052Z,71.42
2022-10-12T12:14:50.993Z,71.61
2022-10-12T12:15:50.945Z,71.42
2022-10-12T12:16:50.902Z,71.42
2022-10-12T12:17:50.866Z,71.32
2022-10-12T12:18:50.826Z,71.32
2022-10-12T12:19:50.806Z,71.22
2022-10-12T12:20:50.745Z,70.54
2022-10-12T12:21:50.708Z,70.45
2022-10-12T12:22:50.669Z,70.36
2022-10-12T12:23:50.630Z,70.45
2022-10-12T12:24:50.591Z,69.87
2022-10-12T12:25:50.605Z,70.16
2022-10-12T12:26:50.514Z,69.39
2022-10-12T12:27:50.475Z,69.42
2022-10-12T12:28:50.532Z,69.42
2022-10-12T12:29:50.392Z,68.94
2022-10-12T12:30:50.353Z,68.84
2022-10-12T12:31:50.340Z,68.94
2022-10-12T12:32:50.279Z,69.00
2022-10-12T12:33:50.240Z,68.84
2022-10-12T12:34:50.199Z,68.94
2022-10-12T12:35:50.161Z,68.94
2022-10-12T12:36:50.119Z,69.20
2022-10-12T12:37:50.109Z,69.13
2022-10-12T12:38:50.043Z,69.23
2022-10-12T12:39:50.004Z,69.23
2022-10-12T12:40:49.990Z,69.20
2022-10-12T12:41:54.264Z,69.81
2022-10-12T12:42:49.888Z,69.23
2022-10-12T12:43:49.848Z,69.23
2022-10-12T12:44:49.807Z,69.23
2022-10-12T12:45:49.786Z,69.42
2022-10-12T12:46:49.730Z,68.55
2022-10-12T12:47:49.723Z,68.75
2022-10-12T12:48:49.659Z,68.17
2022-10-12T12:49:49.611Z,68.65
2022-10-12T12:50:49.572Z,67.49
2022-10-12T12:51:49.540Z,67.69
2022-10-12T12:52:49.495Z,67.69
2022-10-12T12:53:49.485Z,67.40
2022-10-12T12:54:53.152Z,66.75
2022-10-12T12:55:49.396Z,66.85
2022-10-12T12:56:49.338Z,67.04
2022-10-12T12:57:49.301Z,66.85
2022-10-12T12:58:49.262Z,66.85
2022-10-12T12:59:49.234Z,66.08
2022-10-12T13:00:49.199Z,65.20
2022-10-12T13:01:49.207Z,65.01
2022-10-12T13:02:52.338Z,65.50
2022-10-12T13:03:49.066Z,65.78
2022-10-12T13:04:49.028Z,65.20
2022-10-12T13:05:49.004Z,65.20